createdAt,value
2018-10-06T00:00:36.465Z,74.00
2018-10-06T00:04:39.832Z,73.40
2018-10-06T00:08:43.192Z,73.70
2018-10-06T00:12:46.575Z,74.80
2018-10-06T00:16:49.957Z,74.00
2018-10-06T00:20:53.287Z,74.30
2018-10-06T00:24:56.675Z,74.80
2018-10-06T00:29:00.034Z,74.50
2018-10-06T00:33:03.393Z,73.70
2018-10-06T00:37:06.841Z,73.70
2018-10-06T00:41:10.197Z,73.80
2018-10-06T00:45:13.557Z,74.60
2018-10-06T00:49:16.980Z,74.70
2018-10-06T00:53:20.334Z,78.50
2018-10-06T00:57:23.704Z,75.40
2018-10-06T01:01:27.037Z,74.60
2018-10-06T01:05:30.423Z,74.00
2018-10-06T01:09:33.808Z,73.80
2018-10-06T01:13:37.192Z,73.80
2018-10-06T01:17:40.564Z,74.10
2018-10-06T01:21:43.933Z,74.40
2018-10-06T01:25:47.315Z,74.80
2018-10-06T01:29:50.697Z,74.40
2018-10-06T01:33:54.058Z,75.50
2018-10-06T01:37:57.444Z,75.20
2018-10-06T01:42:01.212Z,76.30
2018-10-06T01:46:04.629Z,75.40
2018-10-06T01:50:08.766Z,75.80
2018-10-06T01:54:12.124Z,74.50
2018-10-06T01:58:15.483Z,75.30
2018-10-06T02:02:18.837Z,75.00
2018-10-06T02:06:22.221Z,75.90
2018-10-06T02:10:25.608Z,75.10
2018-10-06T02:14:28.998Z,74.70
2018-10-06T02:18:32.415Z,75.10
2018-10-06T02:22:36.932Z,75.00
2018-10-06T02:26:40.294Z,74.60
2018-10-06T02:30:45.771Z,75.00
2018-10-06T02:34:49.168Z,76.00
2018-10-06T02:38:52.569Z,75.30
2018-10-06T02:42:55.915Z,75.30
2018-10-06T02:46:59.278Z,74.50
2018-10-06T02:51:03.707Z,75.40
2018-10-06T02:55:07.190Z,75.30
2018-10-06T02:59:10.564Z,75.30
2018-10-06T03:03:13.976Z,75.30
2018-10-06T03:07:17.328Z,74.70
2018-10-06T03:11:20.712Z,75.70
2018-10-06T03:15:24.101Z,74.40
2018-10-06T03:19:27.483Z,74.50
2018-10-06T03:23:30.823Z,74.80
2018-10-06T03:27:34.193Z,75.10
2018-10-06T03:31:37.612Z,76.00
2018-10-06T03:35:40.977Z,75.40
2018-10-06T03:39:44.454Z,75.30
2018-10-06T03:43:47.785Z,75.40
2018-10-06T03:47:51.236Z,75.30
2018-10-06T03:51:54.597Z,74.70
2018-10-06T03:55:58.121Z,75.40
2018-10-06T04:00:01.472Z,75.80
2018-10-06T04:04:04.816Z,75.50
2018-10-06T04:08:08.176Z,75.30
2018-10-06T04:12:11.557Z,75.10
2018-10-06T04:16:14.924Z,75.80
2018-10-06T04:20:18.336Z,75.50
2018-10-06T04:24:21.676Z,75.80
2018-10-06T04:28:25.090Z,75.80
2018-10-06T04:32:28.447Z,76.80
2018-10-06T04:36:32.488Z,75.50
2018-10-06T04:40:36.475Z,76.40
2018-10-06T04:44:41.011Z,76.00
2018-10-06T04:48:44.408Z,76.00
2018-10-06T04:52:47.775Z,76.10
2018-10-06T04:56:51.162Z,76.70
2018-10-06T05:00:54.948Z,76.20
2018-10-06T05:04:58.340Z,77.20
2018-10-06T05:09:01.716Z,74.60
2018-10-06T05:13:05.071Z,75.60
2018-10-06T05:17:08.477Z,76.70
2018-10-06T05:21:11.827Z,76.20
2018-10-06T05:25:15.196Z,76.10
2018-10-06T05:29:18.582Z,77.20
2018-10-06T05:33:21.969Z,76.80
2018-10-06T05:37:25.384Z,77.40
2018-10-06T05:41:28.741Z,76.80
2018-10-06T05:45:32.116Z,76.50
2018-10-06T05:49:35.572Z,76.10
2018-10-06T05:53:38.935Z,76.40
2018-10-06T05:57:42.361Z,76.00
2018-10-06T06:01:45.755Z,76.00
2018-10-06T06:05:49.145Z,76.30
2018-10-06T06:09:54.115Z,75.10
2018-10-06T06:13:57.532Z,76.40
2018-10-06T06:18:00.911Z,76.70
2018-10-06T06:22:04.271Z,76.30
2018-10-06T06:26:07.690Z,76.40
2018-10-06T06:30:11.181Z,76.30
2018-10-06T06:34:15.136Z,76.80
2018-10-06T06:38:18.597Z,77.50
2018-10-06T06:42:21.981Z,76.30
2018-10-06T06:46:25.361Z,77.80
2018-10-06T06:50:28.769Z,79.80
2018-10-06T06:54:32.131Z,78.40
2018-10-06T06:58:35.734Z,78.30
2018-10-06T07:02:39.390Z,75.00
2018-10-06T07:06:43.960Z,75.90
2018-10-06T07:10:47.389Z,76.00
2018-10-06T07:14:50.769Z,76.40
2018-10-06T07:18:55.092Z,79.60
2018-10-06T07:22:58.448Z,75.60
2018-10-06T07:27:01.860Z,75.20
2018-10-06T07:31:05.557Z,74.40
2018-10-06T07:35:08.927Z,74.20
2018-10-06T07:39:12.302Z,76.50
2018-10-06T07:43:16.699Z,74.50
2018-10-06T07:47:20.323Z,73.40
2018-10-06T07:51:23.963Z,74.80
2018-10-06T07:55:27.524Z,72.40
2018-10-06T07:59:30.905Z,72.30
2018-10-06T08:03:34.436Z,74.30
2018-10-06T08:07:37.812Z,72.40
2018-10-06T08:11:41.156Z,72.30
2018-10-06T08:15:44.537Z,71.80
2018-10-06T08:19:48.009Z,71.00
2018-10-06T08:23:51.356Z,69.40
2018-10-06T08:27:54.716Z,70.20
2018-10-06T08:36:02.647Z,67.50
2018-10-06T08:40:06.103Z,68.00
2018-10-06T08:44:09.471Z,67.30
2018-10-06T08:52:16.053Z,66.20
2018-10-06T08:56:19.539Z,64.90
2018-10-06T09:00:22.897Z,66.40
2018-10-06T09:04:26.702Z,64.90
2018-10-06T09:08:29.956Z,63.80
2018-10-06T09:12:33.372Z,63.00
2018-10-06T09:16:36.770Z,63.90
2018-10-06T09:20:40.404Z,63.00
2018-10-06T09:24:43.767Z,63.70
2018-10-06T09:28:47.140Z,63.30
2018-10-06T09:32:50.488Z,62.70
2018-10-06T09:36:53.866Z,61.30
2018-10-06T09:40:57.472Z,62.60
2018-10-06T09:45:00.891Z,57.70
2018-10-06T09:49:05.292Z,61.60
2018-10-06T09:53:08.673Z,60.70
2018-10-06T09:57:12.049Z,60.00
2018-10-06T10:01:21.918Z,60.30
2018-10-06T10:05:57.347Z,57.30
2018-10-06T10:10:00.761Z,59.70
2018-10-06T10:14:04.521Z,57.30
2018-10-06T10:18:07.987Z,59.00
2018-10-06T12:56:15.030Z,54.10
2018-10-06T13:00:18.506Z,61.30
2018-10-06T13:04:21.871Z,60.90
2018-10-06T13:08:25.232Z,60.60
2018-10-06T13:12:28.611Z,56.70
2018-10-06T13:16:32.002Z,53.50
2018-10-06T13:20:35.483Z,54.70
2018-10-06T13:24:38.850Z,56.40
2018-10-06T13:28:42.233Z,53.70
2018-10-06T13:32:45.593Z,61.30
2018-10-06T13:36:48.988Z,61.40
2018-10-06T13:40:52.373Z,59.60
2018-10-06T13:44:55.745Z,59.70
2018-10-06T13:48:59.120Z,56.90
2018-10-06T13:53:02.494Z,61.90
2018-10-06T13:57:05.884Z,62.10
2018-10-06T14:01:09.330Z,55.80
2018-10-06T14:05:12.717Z,62.30
2018-10-06T14:09:16.092Z,62.10
2018-10-06T14:13:19.437Z,60.90
2018-10-06T14:17:22.864Z,60.90
2018-10-06T14:21:26.240Z,61.60
2018-10-06T14:25:29.619Z,58.20
2018-10-06T14:29:33.020Z,58.80
2018-10-06T14:33:36.384Z,60.90
2018-10-06T14:37:39.760Z,59.10
2018-10-06T14:41:43.132Z,61.60
2018-10-06T14:45:47.295Z,60.50
2018-10-06T14:49:50.733Z,61.00
2018-10-06T14:53:54.120Z,56.00
2018-10-06T14:57:58.606Z,60.60
2018-10-06T15:02:02.029Z,62.70
2018-10-06T15:06:05.395Z,60.30
2018-10-06T15:10:08.774Z,60.20
2018-10-06T15:14:12.191Z,62.80
2018-10-06T15:18:15.584Z,60.00
2018-10-06T15:22:18.977Z,60.60
2018-10-06T15:26:22.336Z,63.10
2018-10-06T15:30:29.205Z,62.60
2018-10-06T15:34:32.906Z,64.10
2018-10-06T15:38:36.292Z,62.10
2018-10-06T15:42:39.704Z,64.20
2018-10-06T15:46:43.056Z,63.90
2018-10-06T15:50:46.935Z,63.70
2018-10-06T15:54:50.327Z,63.80
2018-10-06T15:58:53.785Z,61.70
2018-10-06T16:02:57.175Z,64.10
2018-10-06T16:07:00.784Z,64.00
2018-10-06T16:11:04.135Z,61.30
2018-10-06T16:15:07.543Z,63.60
2018-10-06T16:19:10.910Z,62.00
2018-10-06T16:23:14.266Z,61.20
2018-10-06T16:27:17.677Z,61.60
2018-10-06T16:31:21.068Z,60.90
2018-10-06T16:35:24.700Z,63.20
2018-10-06T16:39:28.168Z,64.10
2018-10-06T16:43:31.541Z,64.00
2018-10-06T16:47:34.883Z,63.60
2018-10-06T16:51:38.258Z,63.30
2018-10-06T16:55:41.639Z,63.10
2018-10-06T16:59:45.197Z,63.50
2018-10-06T17:03:48.580Z,64.20
2018-10-06T17:07:52.026Z,62.70
2018-10-06T17:11:55.360Z,64.40
2018-10-06T17:15:58.739Z,64.00
2018-10-06T17:20:02.124Z,63.80
2018-10-06T17:24:06.037Z,63.70
2018-10-06T17:28:09.372Z,63.40
2018-10-06T17:32:14.032Z,64.50
2018-10-06T17:36:17.420Z,62.70
2018-10-06T17:40:20.812Z,64.30
2018-10-06T17:44:24.272Z,64.10
2018-10-06T17:48:27.771Z,65.30
2018-10-06T17:52:32.217Z,65.10
2018-10-06T17:56:35.589Z,65.90
2018-10-06T18:00:38.981Z,66.00
2018-10-06T18:04:42.373Z,65.70
2018-10-06T18:08:46.224Z,66.50
2018-10-06T18:12:49.626Z,66.30
2018-10-06T18:16:53.329Z,65.80
2018-10-06T18:20:56.741Z,65.90
2018-10-06T18:25:00.105Z,65.50
2018-10-06T18:29:03.524Z,65.90
2018-10-06T18:33:06.875Z,66.10
2018-10-06T18:37:10.400Z,66.40
2018-10-06T18:41:13.647Z,66.70
2018-10-06T18:45:17.584Z,66.80
2018-10-06T18:49:21.048Z,67.20
2018-10-06T18:53:24.391Z,66.90
2018-10-06T18:57:27.834Z,67.10
2018-10-06T19:01:31.368Z,67.00
2018-10-06T19:05:34.910Z,67.20
2018-10-06T19:09:38.284Z,67.40
2018-10-06T19:13:41.690Z,68.20
2018-10-06T19:17:45.092Z,68.80
2018-10-06T19:21:48.495Z,68.10
2018-10-06T19:25:51.961Z,68.20
2018-10-06T19:29:55.275Z,68.30
2018-10-06T19:33:58.663Z,68.00
2018-10-06T19:38:02.028Z,68.60
2018-10-06T19:42:05.408Z,68.50
2018-10-06T19:46:09.110Z,68.30
2018-10-06T19:50:12.571Z,68.50
2018-10-06T19:54:16.284Z,69.50
2018-10-06T19:58:19.904Z,69.00
2018-10-06T20:02:23.291Z,69.30
2018-10-06T20:06:28.953Z,69.30
2018-10-06T20:10:32.349Z,69.40
2018-10-06T20:14:35.739Z,69.20
2018-10-06T20:18:39.140Z,69.90
2018-10-06T20:22:42.840Z,69.50
2018-10-06T20:26:46.227Z,69.70
2018-10-06T20:30:49.693Z,69.70
2018-10-06T20:34:53.105Z,69.40
2018-10-06T20:38:56.502Z,69.90
2018-10-06T20:42:59.904Z,70.00
2018-10-06T20:47:03.252Z,70.60
2018-10-06T20:51:07.701Z,70.60
2018-10-06T20:55:11.144Z,70.10
2018-10-06T20:59:14.510Z,69.60
2018-10-06T21:03:17.938Z,69.80
2018-10-06T21:07:21.301Z,70.20
2018-10-06T21:11:25.121Z,70.40
2018-10-06T21:15:28.512Z,70.00
2018-10-06T21:19:32.119Z,70.20
2018-10-06T21:23:35.515Z,70.10
2018-10-06T21:27:38.896Z,70.40
2018-10-06T21:31:42.303Z,70.50
2018-10-06T21:35:45.672Z,69.90
2018-10-06T21:39:49.080Z,71.30
2018-10-06T21:43:52.480Z,70.60
2018-10-06T21:47:55.859Z,71.40
2018-10-06T21:51:59.255Z,71.00
2018-10-06T21:56:02.704Z,70.90
2018-10-06T22:00:09.620Z,70.70
2018-10-06T22:04:13.011Z,71.70
2018-10-06T22:08:16.372Z,70.90
2018-10-06T22:12:19.740Z,70.60
2018-10-06T22:16:24.047Z,71.10
2018-10-06T22:20:27.516Z,71.30
2018-10-06T22:24:30.963Z,70.40
2018-10-06T22:28:34.312Z,71.00
2018-10-06T22:32:37.693Z,71.50
2018-10-06T22:36:41.083Z,71.20
2018-10-06T22:40:44.457Z,71.50
2018-10-06T22:44:47.824Z,71.60
2018-10-06T22:48:51.281Z,71.10
2018-10-06T22:52:55.775Z,72.30
2018-10-06T22:56:59.253Z,71.30
2018-10-06T23:01:02.669Z,71.50
2018-10-06T23:05:06.073Z,71.60
2018-10-06T23:09:11.520Z,71.60
2018-10-06T23:13:14.879Z,71.20
2018-10-06T23:17:19.135Z,71.90
2018-10-06T23:21:22.548Z,71.40
2018-10-06T23:25:25.925Z,71.80
2018-10-06T23:29:29.294Z,71.90
2018-10-06T23:33:32.701Z,71.40
2018-10-06T23:37:36.099Z,71.60
2018-10-06T23:41:39.504Z,72.70
2018-10-06T23:45:44.191Z,72.00
2018-10-06T23:49:47.601Z,72.30
2018-10-06T23:53:50.989Z,72.70
2018-10-06T23:57:54.348Z,72.60
